Time;durP1;ratioP1;P1;durP2;ratioP2;P2;SDS_P1;SDS_P2;PMS_P1;PMS_P2;Temp;Humidity;BMP_temperature;BMP_pressure;BME280_temperature;BME280_humidity;BME280_pressure;Samples;Min_cycle;Max_cycle;Signal;HPM_P1;HPM_P2
2022/07/02 00:01:20;;;;;;;14.73;2.15;;;;;;;19.41;46.02;99111.19;4952580;29;20139;-50
2022/07/02 00:03:56;;;;;;;20.10;1.70;;;;;;;19.42;46.34;99128.78;4953900;28;20038;-50
2022/07/02 00:06:29;;;;;;;8.15;2.17;;;;;;;19.37;46.25;99126.03;4952562;29;20024;-49
2022/07/02 00:08:55;;;;;;;5.80;1.10;;;;;;;19.32;46.33;99121.47;4952582;29;20042;-49
2022/07/02 00:11:21;;;;;;;7.20;1.85;;;;;;;19.29;46.42;99121.94;4952483;29;20085;-49
2022/07/02 00:13:50;;;;;;;10.63;1.50;;;;;;;19.35;46.37;99120.16;4952365;29;20023;-49
2022/07/02 00:16:15;;;;;;;12.00;1.30;;;;;;;19.32;46.50;99116.16;4953752;28;20023;-50
2022/07/02 00:18:42;;;;;;;12.30;1.55;;;;;;;19.34;46.71;99131.88;4952435;29;20106;-50
2022/07/02 00:21:08;;;;;;;8.75;1.60;;;;;;;19.38;46.40;99127.66;4968566;28;20074;-49
2022/07/02 00:23:33;;;;;;;6.68;1.65;;;;;;;19.34;46.55;99130.00;4953699;28;20032;-49
2022/07/02 00:26:07;;;;;;;9.70;1.40;;;;;;;19.27;46.64;99136.56;4953664;28;20031;-49
2022/07/02 00:28:41;;;;;;;7.30;1.77;;;;;;;19.27;46.67;99129.38;4952375;29;20604;-49
2022/07/02 00:31:06;;;;;;;8.93;1.60;;;;;;;19.24;46.68;99132.53;4953478;28;20506;-49
2022/07/02 00:33:35;;;;;;;6.00;1.50;;;;;;;19.18;46.79;99133.53;4953535;29;20031;-50
2022/07/02 00:36:02;;;;;;;5.43;1.45;;;;;;;19.11;47.04;99132.88;4953484;28;20030;-49
2022/07/02 00:38:28;;;;;;;9.55;1.55;;;;;;;19.13;47.46;99122.81;4953592;28;20035;-50
2022/07/02 00:40:54;;;;;;;5.82;1.45;;;;;;;19.18;47.10;99114.09;4953549;29;20030;-49
2022/07/02 00:43:21;;;;;;;15.75;2.20;;;;;;;19.27;46.95;99120.59;4953418;28;20036;-49
2022/07/02 00:45:47;;;;;;;9.55;1.80;;;;;;;19.29;46.82;99126.47;4953474;28;20023;-49
2022/07/02 00:48:14;;;;;;;8.98;1.50;;;;;;;19.34;46.61;99116.72;4953500;28;20549;-49
2022/07/02 00:50:39;;;;;;;9.23;1.48;;;;;;;19.29;46.98;99124.63;4953458;28;20027;-49
2022/07/02 00:53:05;;;;;;;11.70;1.67;;;;;;;19.26;46.71;99126.97;4953442;28;20397;-49
2022/07/02 00:55:31;;;;;;;10.35;1.70;;;;;;;19.24;46.87;99127.22;4953277;29;20134;-49
2022/07/02 00:57:57;;;;;;;9.48;1.95;;;;;;;19.28;46.76;99123.00;4952146;28;20027;-49
2022/07/02 01:00:23;;;;;;;5.07;1.02;;;;;;;19.31;46.73;99124.38;4956200;28;20023;-49
2022/07/02 01:02:50;;;;;;;8.55;1.38;;;;;;;19.29;46.48;99131.78;4957066;28;20062;-49
2022/07/02 01:05:20;;;;;;;7.18;1.10;;;;;;;19.21;46.62;99129.56;4955722;29;20082;-49
2022/07/02 01:10:16;;;;;;;7.75;1.13;;;;;;;19.14;46.54;99135.88;4956990;28;20031;-49
2022/07/02 01:10:46;;;;;;;5.70;1.35;;;;;;;18.99;46.76;99135.66;4956861;29;20043;-49
2022/07/02 01:13:12;;;;;;;3.47;1.05;;;;;;;18.82;47.05;99138.34;4955673;29;20489;-49
2022/07/02 01:15:39;;;;;;;1.67;0.73;;;;;;;18.70;47.35;99134.94;4955461;29;20027;-49
2022/07/02 01:18:05;;;;;;;13.13;1.42;;;;;;;18.61;47.60;99139.03;4956827;28;20409;-49
2022/07/02 01:20:31;;;;;;;2.85;1.15;;;;;;;18.57;47.77;99144.00;4955371;29;20402;-49
2022/07/02 01:22:56;;;;;;;5.10;0.93;;;;;;;18.52;47.71;99134.13;4955373;29;20086;-49
2022/07/02 01:25:22;;;;;;;8.93;0.80;;;;;;;18.46;47.89;99142.25;4956573;29;20031;-49
2022/07/02 01:27:48;;;;;;;9.35;1.27;;;;;;;18.43;48.11;99134.75;4955296;29;20082;-49
2022/07/02 01:30:14;;;;;;;2.28;0.95;;;;;;;18.44;48.05;99131.06;4955032;29;20034;-50
2022/07/02 01:32:40;;;;;;;6.43;1.30;;;;;;;18.49;48.24;99128.47;4955327;29;20567;-49
2022/07/02 01:35:10;;;;;;;3.58;1.00;;;;;;;18.59;48.04;99125.16;4955228;29;20428;-49
2022/07/02 01:37:40;;;;;;;6.10;1.20;;;;;;;18.65;47.79;99118.88;4955216;29;20059;-49
2022/07/02 01:40:07;;;;;;;4.85;1.15;;;;;;;18.65;47.90;99119.72;4955075;29;20031;-49
2022/07/02 01:42:33;;;;;;;5.68;1.23;;;;;;;18.64;48.02;99120.75;4956221;28;20492;-49
2022/07/02 01:44:59;;;;;;;7.85;1.77;;;;;;;18.54;47.91;99123.25;4956328;28;20066;-50
2022/07/02 01:47:25;;;;;;;5.60;1.00;;;;;;;18.47;47.93;99126.06;4956495;29;20366;-49
2022/07/02 01:49:50;;;;;;;6.13;1.05;;;;;;;18.35;48.28;99134.13;4954939;29;20035;-49
2022/07/02 01:52:16;;;;;;;7.63;1.23;;;;;;;18.29;48.22;99134.25;4956138;29;20034;-49
2022/07/02 01:54:44;;;;;;;5.22;0.95;;;;;;;18.25;48.38;99139.25;4956017;28;20560;-49
2022/07/02 01:57:11;;;;;;;7.07;1.00;;;;;;;18.28;48.42;99138.75;4954725;29;20406;-49
2022/07/02 01:59:38;;;;;;;13.07;1.40;;;;;;;18.34;48.71;99150.28;4954737;29;20495;-49
2022/07/02 02:02:04;;;;;;;9.82;1.63;;;;;;;18.40;48.36;99144.00;4954656;29;20401;-49
2022/07/02 02:04:30;;;;;;;13.45;1.42;;;;;;;18.42;48.24;99152.53;4955977;28;20437;-49
2022/07/02 02:06:56;;;;;;;30.50;3.35;;;;;;;18.45;48.71;99144.09;4954622;29;20035;-49
2022/07/02 02:09:22;;;;;;;10.02;1.98;;;;;;;18.63;48.63;99150.22;4954521;28;20090;-49
2022/07/02 02:11:48;;;;;;;7.68;1.83;;;;;;;18.87;48.27;99146.38;4955628;28;20102;-49
2022/07/02 02:14:14;;;;;;;33.00;20.38;;;;;;;19.07;48.29;99145.88;4955643;28;20031;-49
2022/07/02 02:16:39;;;;;;;18.50;4.18;;;;;;;19.26;47.78;99146.41;4954399;29;20027;-49
2022/07/02 02:19:05;;;;;;;12.18;2.13;;;;;;;19.43;48.12;99148.22;4955704;29;20023;-50
2022/07/02 02:21:31;;;;;;;13.60;2.42;;;;;;;19.50;48.06;99151.50;4955564;28;20382;-49
2022/07/02 02:23:58;;;;;;;7.15;0.88;;;;;;;19.52;47.33;99147.53;4955621;28;20030;-50
2022/07/02 02:26:25;;;;;;;4.70;1.08;;;;;;;19.36;46.80;99151.06;4954265;29;20031;-49
2022/07/02 02:28:51;;;;;;;9.27;1.90;;;;;;;19.13;47.97;99157.38;4955575;28;20034;-49
2022/07/02 02:31:18;;;;;;;13.02;1.95;;;;;;;19.07;48.86;99159.16;4955213;28;20039;-50
2022/07/02 02:33:43;;;;;;;4.88;1.30;;;;;;;19.02;49.34;99150.34;4955415;28;20106;-50
2022/07/02 02:36:09;;;;;;;6.60;1.00;;;;;;;18.41;49.86;99145.63;4954070;29;20115;-50
2022/07/02 02:38:36;;;;;;;4.68;1.00;;;;;;;17.63;51.37;99139.13;4955381;28;20028;-49
2022/07/02 02:41:06;;;;;;;5.10;1.05;;;;;;;17.06;52.87;99126.50;4955279;28;20035;-49
2022/07/02 02:43:33;;;;;;;4.30;1.00;;;;;;;16.73;54.37;99125.22;4955365;28;20110;-51
2022/07/02 02:46:00;;;;;;;8.55;2.08;;;;;;;16.57;55.67;99118.75;4955171;28;20031;-51
2022/07/02 02:48:26;;;;;;;6.82;1.80;;;;;;;17.00;55.62;99122.13;4953858;29;20492;-51
2022/07/02 02:50:52;;;;;;;8.07;1.30;;;;;;;17.34;54.89;99123.97;4955155;28;20382;-51
2022/07/02 02:53:18;;;;;;;10.68;2.38;;;;;;;17.35;53.96;99124.75;4955042;29;20034;-51
2022/07/02 02:55:44;;;;;;;5.95;1.35;;;;;;;17.18;54.35;99135.25;4954940;28;20497;-51
2022/07/02 02:58:09;;;;;;;2.72;0.85;;;;;;;16.84;54.62;99124.47;4954953;28;20505;-51
2022/07/02 03:00:35;;;;;;;12.75;2.10;;;;;;;16.63;56.06;99127.63;4953591;29;20034;-51
2022/07/02 03:03:01;;;;;;;4.18;0.93;;;;;;;16.74;56.39;99124.16;4954912;28;20027;-51
2022/07/02 03:05:27;;;;;;;6.32;1.13;;;;;;;16.67;56.32;99113.69;4955059;28;20027;-51
2022/07/02 03:07:52;;;;;;;4.55;0.95;;;;;;;16.30;56.97;99102.47;4953522;29;20076;-51
2022/07/02 03:10:18;;;;;;;3.00;0.70;;;;;;;15.83;57.71;99105.75;4953514;29;20122;-51
2022/07/02 03:12:44;;;;;;;5.43;1.23;;;;;;;15.48;59.08;99100.28;4953502;29;20493;-51
2022/07/02 03:15:10;;;;;;;5.43;1.40;;;;;;;15.18;60.69;99101.81;4954664;28;20034;-51
2022/07/02 03:17:36;;;;;;;3.63;1.20;;;;;;;14.87;61.37;99102.75;4953409;29;20027;-50
2022/07/02 03:20:03;;;;;;;5.57;1.23;;;;;;;14.93;62.14;99098.41;4954571;28;20054;-50
2022/07/02 03:22:28;;;;;;;5.78;1.27;;;;;;;15.09;61.74;99094.38;4952675;28;20031;-50
2022/07/02 03:24:54;;;;;;;6.25;1.35;;;;;;;15.13;61.51;99085.81;4954474;29;20453;-51
2022/07/02 03:27:20;;;;;;;5.90;1.27;;;;;;;15.07;61.76;99088.53;4953133;29;20027;-50
2022/07/02 03:29:45;;;;;;;4.45;1.20;;;;;;;14.81;62.05;99086.94;4953146;29;20034;-51
2022/07/02 03:32:11;;;;;;;6.05;1.40;;;;;;;14.72;62.56;99092.50;4954141;29;20094;-50
2022/07/02 03:34:37;;;;;;;4.40;1.13;;;;;;;14.75;62.30;99084.16;4952963;29;20106;-51
2022/07/02 03:37:03;;;;;;;5.55;0.95;;;;;;;14.82;62.24;99092.03;4952973;29;20081;-50
2022/07/02 03:39:29;;;;;;;6.38;0.90;;;;;;;14.78;62.72;99096.94;4954301;28;20031;-50
2022/07/02 03:41:55;;;;;;;8.23;1.48;;;;;;;14.80;63.15;99095.91;4954214;29;20026;-51
2022/07/02 03:44:20;;;;;;;8.90;2.08;;;;;;;15.02;62.81;99101.59;4952826;29;20060;-51
2022/07/02 03:46:46;;;;;;;8.98;0.98;;;;;;;15.23;62.20;99093.25;4953023;29;20039;-51
2022/07/02 03:49:12;;;;;;;11.77;1.35;;;;;;;15.40;61.87;99113.81;4954071;29;20058;-50
2022/07/02 03:51:37;;;;;;;2.63;1.10;;;;;;;15.38;60.90;99116.66;4954072;29;20026;-51
2022/07/02 03:54:03;;;;;;;7.32;1.35;;;;;;;15.21;61.40;99120.91;4953942;28;20174;-51
2022/07/02 03:56:29;;;;;;;11.82;1.63;;;;;;;15.49;62.46;99115.09;4952639;29;20043;-51
2022/07/02 03:58:55;;;;;;;1.45;0.70;;;;;;;15.95;60.96;99114.53;4954033;28;20070;-51
2022/07/02 04:01:21;;;;;;;2.20;1.02;;;;;;;15.93;60.21;99121.09;4952578;29;20121;-51
2022/07/02 04:03:46;;;;;;;5.30;1.40;;;;;;;16.12;60.37;99125.34;4953954;29;20027;-51
2022/07/02 04:06:12;;;;;;;6.88;1.20;;;;;;;16.46;59.78;99120.34;4952591;29;20031;-50
2022/07/02 04:08:38;;;;;;;5.43;1.67;;;;;;;16.73;58.90;99123.38;4952562;29;20520;-51
2022/07/02 04:11:03;;;;;;;8.23;1.60;;;;;;;17.00;57.87;99119.47;4952500;29;20413;-50
2022/07/02 04:13:29;;;;;;;10.63;1.98;;;;;;;17.24;57.36;99120.25;4952551;29;20063;-52
2022/07/02 04:15:55;;;;;;;14.90;2.15;;;;;;;17.35;56.62;99117.59;4953714;29;20498;-51
2022/07/02 04:18:21;;;;;;;10.73;2.13;;;;;;;17.22;56.03;99125.78;4952491;29;20102;-51
2022/07/02 04:20:47;;;;;;;7.15;1.92;;;;;;;16.82;56.59;99110.63;4952489;29;20031;-51
2022/07/02 04:23:13;;;;;;;16.77;2.55;;;;;;;16.67;58.14;99110.22;4953700;28;20024;-51
2022/07/02 04:25:39;;;;;;;22.15;2.47;;;;;;;16.79;57.48;99105.75;4952424;29;20038;-51
2022/07/02 04:28:05;;;;;;;9.65;1.35;;;;;;;17.15;57.25;99114.53;4953640;28;20026;-51
2022/07/02 04:30:31;;;;;;;10.30;2.10;;;;;;;18.41;54.59;99120.88;4953420;28;20043;-51
2022/07/02 04:32:57;;;;;;;6.82;1.50;;;;;;;19.60;50.98;99117.03;4954344;28;20042;-51
2022/07/02 04:35:22;;;;;;;8.65;1.70;;;;;;;20.25;48.98;99114.50;4957473;28;20033;-51
2022/07/02 04:37:48;;;;;;;6.88;1.15;;;;;;;20.73;47.28;99118.91;4957524;29;20046;-51
2022/07/02 04:40:14;;;;;;;6.90;1.60;;;;;;;21.00;45.90;99125.22;4956189;29;20028;-52
2022/07/02 04:42:40;;;;;;;12.32;1.98;;;;;;;21.03;46.35;99127.38;4957498;28;20079;-52
2022/07/02 04:45:06;;;;;;;9.80;1.77;;;;;;;21.06;46.11;99122.31;4956018;29;20466;-51
2022/07/02 04:47:32;;;;;;;7.07;1.92;;;;;;;21.20;46.23;99111.19;4957353;28;20115;-49
2022/07/02 04:49:57;;;;;;;6.90;1.75;;;;;;;21.44;45.78;99111.59;4957341;29;20102;-49
2022/07/02 04:52:23;;;;;;;7.50;1.90;;;;;;;21.98;44.48;99113.88;4955938;29;20523;-50
2022/07/02 04:54:50;;;;;;;7.88;2.55;;;;;;;22.46;43.18;99106.47;4955857;29;20023;-50
2022/07/02 04:57:15;;;;;;;15.57;2.20;;;;;;;23.21;41.73;99107.69;4957130;28;20034;-50
2022/07/02 04:59:44;;;;;;;7.45;2.10;;;;;;;24.03;40.19;99104.66;4957111;29;20024;-49
2022/07/02 05:02:12;;;;;;;14.68;2.45;;;;;;;24.90;38.49;99103.94;4957070;28;20494;-50
2022/07/02 05:04:39;;;;;;;6.15;1.60;;;;;;;25.56;37.14;99099.69;4955823;29;20078;-50
2022/07/02 05:07:05;;;;;;;7.38;1.15;;;;;;;26.00;35.85;99095.88;4955693;29;20031;-49
2022/07/02 05:09:31;;;;;;;3.65;1.30;;;;;;;26.38;34.90;99098.50;4956957;28;20028;-49
2022/07/02 05:11:57;;;;;;;18.05;2.13;;;;;;;26.85;34.54;99098.53;4956854;29;20023;-49
2022/07/02 05:14:23;;;;;;;8.77;1.90;;;;;;;27.40;33.00;99089.66;4956823;29;20042;-50
2022/07/02 05:16:48;;;;;;;7.28;1.50;;;;;;;27.84;32.23;99085.47;4956840;28;20035;-50
2022/07/02 05:19:14;;;;;;;10.00;1.63;;;;;;;28.02;31.79;99087.22;4955427;29;20035;-49
2022/07/02 05:21:42;;;;;;;12.38;3.40;;;;;;;28.27;31.49;99082.31;4956757;29;20024;-49
2022/07/02 05:24:08;;;;;;;3.53;1.67;;;;;;;28.57;31.13;99083.47;4955388;29;20378;-49
2022/07/02 05:26:33;;;;;;;8.60;1.85;;;;;;;28.75;31.04;99078.16;4955303;29;20027;-50
2022/07/02 05:28:59;;;;;;;13.35;1.60;;;;;;;29.17;30.22;99084.84;4956633;28;20031;-50
2022/07/02 05:31:25;;;;;;;9.38;2.95;;;;;;;29.35;30.11;99087.59;4956357;29;20108;-49
2022/07/02 05:33:51;;;;;;;9.90;1.60;;;;;;;29.79;29.21;99086.56;4956386;29;20448;-50
2022/07/02 05:36:16;;;;;;;11.90;1.45;;;;;;;30.25;28.42;99092.41;4956489;29;20024;-49
2022/07/02 05:38:42;;;;;;;9.70;1.20;;;;;;;30.54;27.91;99096.34;4955179;29;20024;-50
2022/07/02 05:41:08;;;;;;;11.85;1.83;;;;;;;30.78;27.37;99096.59;4956318;29;20636;-50
2022/07/02 05:43:34;;;;;;;4.03;1.63;;;;;;;31.12;27.01;99099.50;4955095;29;20062;-50
2022/07/02 05:46:00;;;;;;;8.82;1.40;;;;;;;31.59;26.52;99094.78;4954369;28;20035;-50
2022/07/02 05:48:25;;;;;;;14.43;2.58;;;;;;;31.85;26.31;99094.59;4956255;29;20031;-50
2022/07/02 05:50:51;;;;;;;10.60;1.70;;;;;;;32.08;26.13;99088.03;4956215;29;20485;-50
2022/07/02 05:53:17;;;;;;;13.70;1.27;;;;;;;32.01;25.71;99094.00;4956166;29;20027;-50
2022/07/02 05:55:42;;;;;;;5.35;1.00;;;;;;;32.14;24.90;99095.63;4956001;28;20032;-49
2022/07/02 05:58:08;;;;;;;7.30;1.23;;;;;;;32.02;25.11;99084.72;4954900;29;20117;-50
2022/07/02 06:00:34;;;;;;;6.53;1.35;;;;;;;32.30;24.72;99089.56;4956049;28;20038;-49
2022/07/02 06:03:00;;;;;;;8.27;1.40;;;;;;;32.74;24.20;99085.28;4956011;28;20019;-51
2022/07/02 06:08:10;;;;;;;5.35;1.08;;;;;;;32.52;24.51;99091.06;4955980;29;20038;-49
2022/07/02 06:10:36;;;;;;;6.07;1.00;;;;;;;33.00;23.37;99089.56;4955892;29;20023;-50
2022/07/02 06:13:01;;;;;;;3.90;1.25;;;;;;;33.65;23.35;99099.75;4956096;29;20023;-49
2022/07/02 06:15:28;;;;;;;6.03;1.10;;;;;;;34.05;22.40;99093.47;4954343;29;20031;-50
2022/07/02 06:17:53;;;;;;;5.43;1.27;;;;;;;34.47;21.71;99088.41;4954592;29;20031;-49
2022/07/02 06:20:19;;;;;;;6.05;1.10;;;;;;;34.65;21.80;99085.31;4955687;28;20024;-50
2022/07/02 06:22:45;;;;;;;7.88;1.20;;;;;;;34.69;21.52;99094.41;4954335;29;20047;-50
2022/07/02 06:25:10;;;;;;;9.77;1.40;;;;;;;34.93;21.30;99104.34;4955594;29;20039;-51
2022/07/02 06:27:38;;;;;;;4.68;0.95;;;;;;;35.31;20.91;99097.44;4954265;29;20030;-49
2022/07/02 06:30:05;;;;;;;4.93;1.20;;;;;;;35.68;20.31;99088.91;4955296;28;20023;-51
2022/07/02 06:32:31;;;;;;;7.43;1.30;;;;;;;35.70;20.45;99087.41;4955583;28;20118;-50
2022/07/02 06:34:57;;;;;;;8.60;1.10;;;;;;;35.77;20.39;99084.03;4955364;28;20114;-50
2022/07/02 06:37:25;;;;;;;3.97;1.02;;;;;;;35.80;20.48;99081.38;4955388;28;20027;-50
2022/07/02 06:39:51;;;;;;;6.03;1.05;;;;;;;35.88;20.12;99071.38;4955329;28;20098;-50
2022/07/02 06:42:22;;;;;;;8.07;1.20;;;;;;;36.12;20.02;99064.81;4955204;28;20106;-49
2022/07/02 06:44:53;;;;;;;5.95;0.90;;;;;;;36.07;19.98;99067.03;4955329;28;20454;-51
2022/07/02 06:47:20;;;;;;;4.57;0.93;;;;;;;36.51;19.84;99072.94;4953937;29;20043;-50
2022/07/02 06:49:47;;;;;;;6.80;1.15;;;;;;;37.17;19.14;99072.81;4955372;28;20024;-49
2022/07/02 06:52:14;;;;;;;6.32;1.50;;;;;;;37.72;18.70;99062.19;4953821;29;20042;-51
2022/07/02 06:54:40;;;;;;;3.85;1.02;;;;;;;37.64;18.80;99076.19;4955016;28;20050;-51
2022/07/02 06:57:07;;;;;;;2.40;1.15;;;;;;;37.32;18.66;99065.59;4953049;28;20441;-51
2022/07/02 06:59:33;;;;;;;5.32;1.42;;;;;;;37.42;18.16;99070.41;4953672;29;20027;-50
2022/07/02 07:02:00;;;;;;;3.67;0.90;;;;;;;37.65;18.22;99080.50;4953622;29;20118;-51
2022/07/02 07:04:28;;;;;;;10.70;2.10;;;;;;;37.94;18.69;99087.13;4954947;28;20026;-51
2022/07/02 07:06:56;;;;;;;13.18;1.65;;;;;;;38.35;18.23;99090.72;4953492;29;20055;-48
2022/07/02 07:09:26;;;;;;;9.35;2.00;;;;;;;38.59;17.94;99082.31;4954795;28;20058;-48
2022/07/02 07:11:52;;;;;;;10.05;1.73;;;;;;;38.66;18.07;99085.13;4954688;28;20035;-48
2022/07/02 07:14:18;;;;;;;4.18;1.48;;;;;;;38.51;18.22;99086.91;4954657;28;20023;-49
2022/07/02 07:16:44;;;;;;;6.82;1.13;;;;;;;38.07;17.89;99093.16;4953342;29;20027;-48
2022/07/02 07:19:10;;;;;;;5.13;1.02;;;;;;;38.06;18.45;99091.56;4954616;28;20027;-48
2022/07/02 07:21:38;;;;;;;7.47;1.70;;;;;;;37.63;18.94;99091.03;4954543;28;20031;-49
2022/07/02 07:24:05;;;;;;;7.78;1.52;;;;;;;37.24;19.19;99104.97;4953228;29;20500;-49
2022/07/02 07:26:31;;;;;;;4.82;1.40;;;;;;;37.19;19.53;99100.63;4954471;28;20031;-50
2022/07/02 07:28:58;;;;;;;3.47;0.90;;;;;;;36.83;20.01;99096.53;4954477;28;20063;-51
2022/07/02 07:31:24;;;;;;;9.45;1.85;;;;;;;36.31;20.43;99087.81;4954185;28;20047;-51
2022/07/02 07:33:51;;;;;;;8.43;1.75;;;;;;;36.21;21.03;99091.94;4954385;28;20023;-50
2022/07/02 07:36:18;;;;;;;4.10;1.00;;;;;;;36.07;20.87;99084.22;4954293;28;20030;-51
2022/07/02 07:38:45;;;;;;;5.75;1.67;;;;;;;35.69;21.45;99074.88;4954368;28;20038;-51
2022/07/02 07:41:10;;;;;;;1.88;0.80;;;;;;;35.28;21.60;99076.34;4952938;29;20118;-50
2022/07/02 07:43:36;;;;;;;4.97;1.40;;;;;;;35.32;21.81;99077.22;4952881;29;20118;-51
2022/07/02 07:46:02;;;;;;;4.65;1.00;;;;;;;35.19;21.55;99076.53;4953095;29;20042;-51
2022/07/02 07:48:28;;;;;;;6.47;1.42;;;;;;;35.07;21.93;99079.34;4954171;28;20023;-51
2022/07/02 07:50:54;;;;;;;5.07;1.38;;;;;;;35.54;21.90;99073.78;4954046;28;20026;-50
2022/07/02 07:53:20;;;;;;;3.67;0.95;;;;;;;36.45;20.85;99068.13;4952738;29;20074;-51
2022/07/02 07:55:48;;;;;;;2.83;0.85;;;;;;;37.08;20.08;99055.84;4953906;28;20054;-50
2022/07/02 07:58:14;;;;;;;3.13;1.02;;;;;;;37.88;19.19;99067.47;4952718;29;20031;-51
2022/07/02 08:00:40;;;;;;;11.02;2.00;;;;;;;38.39;18.55;99073.47;4953975;28;20019;-51
2022/07/02 08:03:06;;;;;;;0.95;0.80;;;;;;;38.63;17.99;99069.41;4953960;28;20121;-49
2022/07/02 08:05:32;;;;;;;2.15;1.02;;;;;;;38.98;18.27;99077.16;4953992;28;20031;-48
2022/07/02 08:07:58;;;;;;;4.57;1.00;;;;;;;39.77;17.44;99074.81;4953726;28;20038;-48
2022/07/02 08:10:24;;;;;;;5.57;1.30;;;;;;;40.20;17.33;99076.88;4953854;29;20394;-51
2022/07/02 08:12:50;;;;;;;4.38;1.10;;;;;;;40.49;17.01;99081.28;4953810;29;20508;-50
2022/07/02 08:15:17;;;;;;;3.83;1.20;;;;;;;40.57;16.89;99084.81;4953786;28;20024;-50
2022/07/02 08:17:43;;;;;;;2.47;1.00;;;;;;;40.62;16.98;99084.41;4952434;29;20031;-50
2022/07/02 08:20:09;;;;;;;4.53;1.30;;;;;;;40.46;17.06;99079.28;4953744;28;20022;-50
2022/07/02 08:22:36;;;;;;;2.85;0.80;;;;;;;40.55;16.89;99078.91;4953795;28;20530;-51
2022/07/02 08:25:04;;;;;;;4.10;1.00;;;;;;;39.88;17.32;99086.63;4953754;28;20035;-50
2022/07/02 08:27:29;;;;;;;3.40;1.00;;;;;;;40.33;17.23;99086.38;4968500;28;20039;-50
2022/07/02 08:29:55;;;;;;;9.30;1.30;;;;;;;40.85;16.88;99077.72;4953685;28;20497;-50
2022/07/02 08:32:21;;;;;;;7.75;1.30;;;;;;;41.09;16.74;99070.59;4953461;28;20040;-52
2022/07/02 08:34:47;;;;;;;4.45;0.88;;;;;;;41.28;16.35;99063.91;4952247;29;20508;-52
2022/07/02 08:37:14;;;;;;;7.03;1.13;;;;;;;41.40;16.25;99068.19;4953625;28;20024;-52
2022/07/02 08:39:40;;;;;;;3.63;0.90;;;;;;;41.36;16.22;99067.41;4953642;28;20706;-52
2022/07/02 08:42:08;;;;;;;10.38;2.22;;;;;;;41.20;16.70;99056.84;4953563;29;20049;-52
2022/07/02 08:44:35;;;;;;;8.65;1.60;;;;;;;40.59;17.17;99057.69;4952237;29;20506;-53
2022/07/02 08:47:07;;;;;;;6.70;1.25;;;;;;;40.43;17.40;99058.09;4953505;28;20027;-53
2022/07/02 08:49:34;;;;;;;3.33;1.10;;;;;;;40.74;17.04;99052.97;4953539;28;20039;-52
2022/07/02 08:52:03;;;;;;;8.43;1.50;;;;;;;40.70;17.22;99052.94;4952275;29;20019;-53
2022/07/02 08:54:28;;;;;;;1.77;0.60;;;;;;;40.34;17.06;99055.69;4953384;28;20126;-53
2022/07/02 08:56:55;;;;;;;2.30;0.90;;;;;;;40.19;17.59;99058.81;4952167;29;20556;-52
2022/07/02 08:59:20;;;;;;;2.40;0.88;;;;;;;40.63;17.11;99049.41;4968173;28;20039;-51
2022/07/02 09:01:50;;;;;;;2.88;1.02;;;;;;;40.22;17.50;99041.53;4953395;28;20416;-52
2022/07/02 09:04:18;;;;;;;8.48;1.70;;;;;;;40.06;17.69;99047.41;4953391;28;20079;-52
2022/07/02 09:06:46;;;;;;;12.57;1.65;;;;;;;40.12;17.73;99048.59;4953327;28;20370;-52
2022/07/02 09:09:12;;;;;;;12.85;1.65;;;;;;;40.20;17.67;99043.88;4953346;28;20023;-52
2022/07/02 09:11:39;;;;;;;5.13;0.93;;;;;;;40.44;17.45;99036.84;4953324;28;20584;-51
2022/07/02 09:14:07;;;;;;;7.47;1.45;;;;;;;40.62;17.60;99039.59;4953230;28;20493;-53
2022/07/02 09:16:33;;;;;;;10.15;1.67;;;;;;;40.62;17.70;99036.84;4951904;29;20058;-53
2022/07/02 09:18:59;;;;;;;12.52;1.48;;;;;;;40.98;17.41;99040.34;4953289;28;20967;-51
2022/07/02 09:21:25;;;;;;;4.35;1.60;;;;;;;40.82;17.46;99042.75;4955909;28;20045;-52
2022/07/02 09:23:51;;;;;;;8.93;1.42;;;;;;;40.85;17.49;99050.19;4956728;28;20074;-52
2022/07/02 09:26:21;;;;;;;2.90;1.20;;;;;;;41.28;17.24;99047.38;4956690;28;20034;-52
2022/07/02 09:29:01;;;;;;;2.17;0.95;;;;;;;41.31;16.95;99049.31;4956640;28;20035;-51
2022/07/02 09:31:46;;;;;;;4.20;0.75;;;;;;;41.39;16.69;99050.06;4956404;28;20399;-52
2022/07/02 09:34:25;;;;;;;11.30;1.52;;;;;;;41.95;16.29;99039.19;4956544;28;20035;-51
2022/07/02 09:36:51;;;;;;;1.73;0.75;;;;;;;42.04;16.68;99040.34;4956594;28;20565;-51
2022/07/02 09:39:28;;;;;;;12.43;1.98;;;;;;;41.87;16.76;99039.22;4956487;28;20019;-52
2022/07/02 09:41:54;;;;;;;6.07;1.30;;;;;;;42.05;16.70;99047.41;4955166;29;20090;-53
2022/07/02 09:44:20;;;;;;;6.38;1.10;;;;;;;42.41;16.12;99044.38;4955131;29;20031;-52
2022/07/02 09:46:45;;;;;;;2.80;1.00;;;;;;;42.47;16.17;99039.25;4955110;29;20482;-52
2022/07/02 09:49:12;;;;;;;4.35;1.40;;;;;;;42.02;16.47;99030.91;4954991;29;20027;-52
2022/07/02 09:51:49;;;;;;;6.15;1.17;;;;;;;41.78;16.73;99038.13;4956213;28;20110;-52
2022/07/02 09:54:24;;;;;;;1.63;0.80;;;;;;;41.78;16.62;99030.63;4956149;28;20023;-52
2022/07/02 09:56:55;;;;;;;4.15;0.70;;;;;;;41.41;17.02;99036.69;4956166;28;20540;-51
2022/07/02 09:59:22;;;;;;;2.90;0.73;;;;;;;41.13;17.21;99033.63;4956159;28;20031;-52
2022/07/02 10:01:48;;;;;;;2.20;1.23;;;;;;;41.29;16.69;99035.16;4970857;28;20034;-52
2022/07/02 10:04:14;;;;;;;3.50;1.00;;;;;;;40.93;17.00;99029.72;4956061;28;20395;-51
2022/07/02 10:06:43;;;;;;;5.85;0.93;;;;;;;40.78;17.18;99033.72;4955964;28;20497;-52
2022/07/02 10:09:09;;;;;;;6.07;1.20;;;;;;;40.89;17.01;99028.94;4955993;28;20467;-53
2022/07/02 10:11:37;;;;;;;2.47;0.52;;;;;;;41.26;16.63;99022.97;4955821;28;20027;-52
2022/07/02 10:14:04;;;;;;;3.47;1.10;;;;;;;41.52;16.78;99018.16;4955747;28;20026;-52
2022/07/02 10:16:30;;;;;;;3.47;0.60;;;;;;;41.56;16.37;99027.19;4955791;28;20031;-52
2022/07/02 10:18:59;;;;;;;4.00;0.90;;;;;;;41.58;16.37;99018.50;4954493;29;20111;-53
2022/07/02 10:21:27;;;;;;;5.68;0.77;;;;;;;41.77;15.46;99018.03;4955733;28;20050;-52
2022/07/02 10:23:54;;;;;;;1.83;0.70;;;;;;;41.67;16.00;99014.13;4954652;29;20027;-53
2022/07/02 10:26:21;;;;;;;3.30;0.80;;;;;;;41.67;15.82;99021.63;4954229;29;20042;-52
2022/07/02 10:28:47;;;;;;;3.40;0.88;;;;;;;41.88;15.65;99016.00;4954296;29;20030;-53
2022/07/02 10:31:18;;;;;;;9.82;1.27;;;;;;;41.54;15.98;99023.25;4955186;28;20050;-52
2022/07/02 10:34:01;;;;;;;3.67;0.85;;;;;;;40.95;16.42;99023.84;4955499;28;20042;-53
2022/07/02 10:36:27;;;;;;;3.37;0.80;;;;;;;40.98;16.62;99021.06;4954210;29;20027;-52
2022/07/02 10:38:58;;;;;;;8.35;1.58;;;;;;;41.06;16.70;99019.09;4955423;28;20023;-52
2022/07/02 10:41:26;;;;;;;1.48;0.88;;;;;;;41.25;16.27;99026.13;4953994;29;20524;-52
2022/07/02 10:43:55;;;;;;;5.18;0.90;;;;;;;41.15;16.33;99024.16;4955313;28;20031;-53
2022/07/02 10:46:24;;;;;;;2.30;1.00;;;;;;;40.97;16.34;99015.97;4955203;28;20046;-53
2022/07/02 10:48:51;;;;;;;11.50;2.15;;;;;;;40.89;16.71;99020.69;4955239;28;20024;-53
2022/07/02 10:51:28;;;;;;;13.82;1.83;;;;;;;40.93;16.72;99024.22;4953792;29;20031;-52
2022/07/02 10:54:02;;;;;;;1.63;0.82;;;;;;;41.13;16.41;99019.06;4953902;29;20405;-52
2022/07/02 10:56:29;;;;;;;3.63;0.75;;;;;;;41.07;15.94;99013.19;4955045;28;20026;-53
2022/07/02 10:58:55;;;;;;;4.22;0.80;;;;;;;40.90;15.97;99006.53;4955048;28;20042;-53
2022/07/02 11:01:23;;;;;;;1.25;0.55;;;;;;;40.74;16.04;99006.19;4954929;28;20198;-52
2022/07/02 11:04:03;;;;;;;6.07;0.93;;;;;;;40.68;15.90;99000.25;4953585;29;20457;-53
2022/07/02 11:06:34;;;;;;;4.70;1.00;;;;;;;40.64;16.42;99001.47;4954857;28;20063;-53
2022/07/02 11:09:05;;;;;;;2.05;0.65;;;;;;;40.85;16.21;99008.91;4954859;29;20031;-52
2022/07/02 11:11:36;;;;;;;1.63;0.80;;;;;;;41.24;15.68;99006.06;4954795;28;20027;-53
2022/07/02 11:14:16;;;;;;;3.05;0.80;;;;;;;41.56;15.34;98991.34;4954769;29;20026;-52
2022/07/02 11:16:52;;;;;;;11.63;1.40;;;;;;;41.43;15.73;98993.75;4954715;28;20031;-52
2022/07/02 11:19:22;;;;;;;1.55;0.90;;;;;;;41.06;15.84;98992.34;4954724;28;20031;-53
2022/07/02 11:21:50;;;;;;;7.35;1.23;;;;;;;41.06;15.72;98995.09;4954613;28;20053;-53
2022/07/02 11:24:20;;;;;;;7.05;1.00;;;;;;;40.97;15.89;98991.97;4953287;29;20030;-52
2022/07/02 11:26:46;;;;;;;4.32;0.88;;;;;;;40.81;16.10;98981.41;4954584;28;20034;-53
2022/07/02 11:29:13;;;;;;;4.38;1.10;;;;;;;40.72;16.18;98987.28;4953149;29;20031;-52
2022/07/02 11:31:46;;;;;;;1.85;0.93;;;;;;;40.54;16.44;98976.31;4954226;28;20070;-53
2022/07/02 11:34:19;;;;;;;2.85;0.82;;;;;;;40.24;16.38;98984.19;4954346;28;20074;-53